sensor_id;sensor_type;location;lat;lon;timestamp;P1;durP1;ratioP1;P2;durP2;ratioP2
7324;SDS011;3703;48.016;7.802;2023-01-26T00:00:01;36.47;;;16.53;;
7324;SDS011;3703;48.016;7.802;2023-01-26T00:02:51;35.47;;;17.83;;
7324;SDS011;3703;48.016;7.802;2023-01-26T00:05:39;37.03;;;18.37;;
7324;SDS011;3703;48.016;7.802;2023-01-26T00:08:27;46.10;;;18.93;;
7324;SDS011;3703;48.016;7.802;2023-01-26T00:11:15;40.93;;;18.80;;
7324;SDS011;3703;48.016;7.802;2023-01-26T00:14:05;42.67;;;19.67;;
7324;SDS011;3703;48.016;7.802;2023-01-26T00:16:53;39.10;;;18.23;;
7324;SDS011;3703;48.016;7.802;2023-01-26T00:19:42;36.20;;;18.60;;
7324;SDS011;3703;48.016;7.802;2023-01-26T00:22:30;42.00;;;18.93;;
7324;SDS011;3703;48.016;7.802;2023-01-26T00:25:18;35.60;;;17.03;;
7324;SDS011;3703;48.016;7.802;2023-01-26T00:28:05;35.47;;;17.23;;
7324;SDS011;3703;48.016;7.802;2023-01-26T00:30:58;40.63;;;17.90;;
7324;SDS011;3703;48.016;7.802;2023-01-26T00:33:49;36.40;;;17.10;;
7324;SDS011;3703;48.016;7.802;2023-01-26T00:36:39;36.07;;;16.10;;
7324;SDS011;3703;48.016;7.802;2023-01-26T00:39:26;36.17;;;17.80;;
7324;SDS011;3703;48.016;7.802;2023-01-26T00:42:14;36.80;;;16.33;;
7324;SDS011;3703;48.016;7.802;2023-01-26T00:45:02;39.43;;;16.67;;
7324;SDS011;3703;48.016;7.802;2023-01-26T00:47:51;33.63;;;14.53;;
7324;SDS011;3703;48.016;7.802;2023-01-26T00:50:39;30.67;;;15.07;;
7324;SDS011;3703;48.016;7.802;2023-01-26T00:53:28;32.87;;;14.50;;
7324;SDS011;3703;48.016;7.802;2023-01-26T00:56:16;32.17;;;14.00;;
7324;SDS011;3703;48.016;7.802;2023-01-26T00:59:03;30.47;;;14.40;;
7324;SDS011;3703;48.016;7.802;2023-01-26T01:01:52;32.77;;;14.27;;
7324;SDS011;3703;48.016;7.802;2023-01-26T01:04:39;30.77;;;13.83;;
7324;SDS011;3703;48.016;7.802;2023-01-26T01:07:27;30.17;;;14.37;;
7324;SDS011;3703;48.016;7.802;2023-01-26T01:10:16;29.90;;;14.00;;
7324;SDS011;3703;48.016;7.802;2023-01-26T01:13:04;31.77;;;14.00;;
7324;SDS011;3703;48.016;7.802;2023-01-26T01:15:52;28.73;;;13.17;;
7324;SDS011;3703;48.016;7.802;2023-01-26T01:18:40;28.17;;;12.93;;
7324;SDS011;3703;48.016;7.802;2023-01-26T01:21:28;27.97;;;13.93;;
7324;SDS011;3703;48.016;7.802;2023-01-26T01:24:17;26.33;;;13.63;;
7324;SDS011;3703;48.016;7.802;2023-01-26T01:27:06;33.13;;;14.50;;
7324;SDS011;3703;48.016;7.802;2023-01-26T01:29:54;29.50;;;14.37;;
7324;SDS011;3703;48.016;7.802;2023-01-26T01:32:42;26.30;;;14.00;;
7324;SDS011;3703;48.016;7.802;2023-01-26T01:35:30;30.80;;;14.13;;
7324;SDS011;3703;48.016;7.802;2023-01-26T01:38:20;29.57;;;13.33;;
7324;SDS011;3703;48.016;7.802;2023-01-26T01:41:07;24.33;;;12.27;;
7324;SDS011;3703;48.016;7.802;2023-01-26T01:44:14;27.77;;;12.60;;
7324;SDS011;3703;48.016;7.802;2023-01-26T01:47:04;26.57;;;12.43;;
7324;SDS011;3703;48.016;7.802;2023-01-26T01:49:57;28.07;;;13.60;;
7324;SDS011;3703;48.016;7.802;2023-01-26T01:52:49;27.03;;;13.00;;
7324;SDS011;3703;48.016;7.802;2023-01-26T01:55:38;25.47;;;11.53;;
7324;SDS011;3703;48.016;7.802;2023-01-26T01:58:26;24.83;;;12.93;;
7324;SDS011;3703;48.016;7.802;2023-01-26T02:01:18;25.67;;;11.73;;
7324;SDS011;3703;48.016;7.802;2023-01-26T02:04:06;28.20;;;12.83;;
7324;SDS011;3703;48.016;7.802;2023-01-26T02:06:55;26.30;;;12.13;;
7324;SDS011;3703;48.016;7.802;2023-01-26T02:09:44;25.03;;;12.70;;
7324;SDS011;3703;48.016;7.802;2023-01-26T02:12:50;27.07;;;13.27;;
7324;SDS011;3703;48.016;7.802;2023-01-26T02:15:41;25.87;;;11.87;;
7324;SDS011;3703;48.016;7.802;2023-01-26T02:18:30;27.50;;;12.63;;
7324;SDS011;3703;48.016;7.802;2023-01-26T02:21:19;30.73;;;13.80;;
7324;SDS011;3703;48.016;7.802;2023-01-26T02:24:09;27.17;;;11.23;;
7324;SDS011;3703;48.016;7.802;2023-01-26T02:27:07;29.30;;;13.13;;
7324;SDS011;3703;48.016;7.802;2023-01-26T02:29:55;25.90;;;12.30;;
7324;SDS011;3703;48.016;7.802;2023-01-26T02:32:43;24.80;;;12.13;;
7324;SDS011;3703;48.016;7.802;2023-01-26T02:35:31;24.87;;;11.70;;
7324;SDS011;3703;48.016;7.802;2023-01-26T02:38:20;29.40;;;12.17;;
7324;SDS011;3703;48.016;7.802;2023-01-26T02:41:09;30.37;;;12.97;;
7324;SDS011;3703;48.016;7.802;2023-01-26T02:44:21;27.10;;;13.13;;
7324;SDS011;3703;48.016;7.802;2023-01-26T02:47:11;24.63;;;11.60;;
7324;SDS011;3703;48.016;7.802;2023-01-26T02:49:59;24.90;;;12.47;;
7324;SDS011;3703;48.016;7.802;2023-01-26T02:52:47;28.30;;;12.47;;
7324;SDS011;3703;48.016;7.802;2023-01-26T02:55:35;21.73;;;10.57;;
7324;SDS011;3703;48.016;7.802;2023-01-26T02:58:23;26.37;;;12.27;;
7324;SDS011;3703;48.016;7.802;2023-01-26T03:01:12;25.73;;;11.87;;
7324;SDS011;3703;48.016;7.802;2023-01-26T03:04:00;26.80;;;12.87;;
7324;SDS011;3703;48.016;7.802;2023-01-26T03:06:48;24.27;;;11.37;;
7324;SDS011;3703;48.016;7.802;2023-01-26T03:09:35;28.23;;;12.63;;
7324;SDS011;3703;48.016;7.802;2023-01-26T03:12:23;29.93;;;13.23;;
7324;SDS011;3703;48.016;7.802;2023-01-26T03:15:12;24.00;;;12.07;;
7324;SDS011;3703;48.016;7.802;2023-01-26T03:18:19;24.50;;;11.87;;
7324;SDS011;3703;48.016;7.802;2023-01-26T03:21:26;27.33;;;13.23;;
7324;SDS011;3703;48.016;7.802;2023-01-26T03:24:31;22.97;;;11.63;;
7324;SDS011;3703;48.016;7.802;2023-01-26T03:27:39;22.03;;;11.73;;
7324;SDS011;3703;48.016;7.802;2023-01-26T03:30:29;27.63;;;12.43;;
7324;SDS011;3703;48.016;7.802;2023-01-26T03:33:18;25.97;;;12.13;;
7324;SDS011;3703;48.016;7.802;2023-01-26T03:36:07;27.03;;;12.60;;
7324;SDS011;3703;48.016;7.802;2023-01-26T03:38:54;26.00;;;12.87;;
7324;SDS011;3703;48.016;7.802;2023-01-26T03:41:42;25.03;;;11.63;;
7324;SDS011;3703;48.016;7.802;2023-01-26T03:44:47;28.57;;;13.30;;
7324;SDS011;3703;48.016;7.802;2023-01-26T03:48:01;29.17;;;13.33;;
7324;SDS011;3703;48.016;7.802;2023-01-26T03:51:09;26.37;;;11.27;;
7324;SDS011;3703;48.016;7.802;2023-01-26T03:54:14;27.23;;;12.00;;
7324;SDS011;3703;48.016;7.802;2023-01-26T03:57:19;25.40;;;12.00;;
7324;SDS011;3703;48.016;7.802;2023-01-26T04:00:07;25.27;;;10.73;;
7324;SDS011;3703;48.016;7.802;2023-01-26T04:02:59;23.30;;;10.80;;
7324;SDS011;3703;48.016;7.802;2023-01-26T04:06:04;28.00;;;12.37;;
7324;SDS011;3703;48.016;7.802;2023-01-26T04:09:11;24.80;;;11.83;;
7324;SDS011;3703;48.016;7.802;2023-01-26T04:11:59;26.83;;;12.43;;
7324;SDS011;3703;48.016;7.802;2023-01-26T04:14:47;26.87;;;11.70;;
7324;SDS011;3703;48.016;7.802;2023-01-26T04:17:53;22.73;;;12.00;;
7324;SDS011;3703;48.016;7.802;2023-01-26T04:21:00;26.07;;;11.37;;
7324;SDS011;3703;48.016;7.802;2023-01-26T04:24:06;27.00;;;11.57;;
7324;SDS011;3703;48.016;7.802;2023-01-26T04:26:59;25.77;;;12.00;;
7324;SDS011;3703;48.016;7.802;2023-01-26T04:29:47;24.27;;;11.57;;
7324;SDS011;3703;48.016;7.802;2023-01-26T04:32:35;27.47;;;12.37;;
7324;SDS011;3703;48.016;7.802;2023-01-26T04:35:23;24.70;;;11.57;;
7324;SDS011;3703;48.016;7.802;2023-01-26T04:38:11;24.17;;;11.50;;
7324;SDS011;3703;48.016;7.802;2023-01-26T04:40:58;23.33;;;10.70;;
7324;SDS011;3703;48.016;7.802;2023-01-26T04:43:48;23.97;;;11.33;;
7324;SDS011;3703;48.016;7.802;2023-01-26T04:46:35;20.83;;;10.80;;
7324;SDS011;3703;48.016;7.802;2023-01-26T04:49:24;28.33;;;11.33;;
7324;SDS011;3703;48.016;7.802;2023-01-26T04:52:12;21.43;;;9.83;;
7324;SDS011;3703;48.016;7.802;2023-01-26T04:55:00;26.23;;;11.90;;
7324;SDS011;3703;48.016;7.802;2023-01-26T04:57:47;22.50;;;10.73;;
7324;SDS011;3703;48.016;7.802;2023-01-26T05:00:37;21.70;;;11.07;;
7324;SDS011;3703;48.016;7.802;2023-01-26T05:03:24;24.13;;;10.60;;
7324;SDS011;3703;48.016;7.802;2023-01-26T05:06:13;22.23;;;11.00;;
7324;SDS011;3703;48.016;7.802;2023-01-26T05:09:01;18.43;;;9.17;;
7324;SDS011;3703;48.016;7.802;2023-01-26T05:11:49;19.67;;;10.20;;
7324;SDS011;3703;48.016;7.802;2023-01-26T05:14:37;23.93;;;11.10;;
7324;SDS011;3703;48.016;7.802;2023-01-26T05:17:26;22.30;;;10.33;;
7324;SDS011;3703;48.016;7.802;2023-01-26T05:20:13;22.67;;;10.37;;
7324;SDS011;3703;48.016;7.802;2023-01-26T05:23:01;24.53;;;10.10;;
7324;SDS011;3703;48.016;7.802;2023-01-26T05:25:49;25.23;;;11.57;;
7324;SDS011;3703;48.016;7.802;2023-01-26T05:28:37;20.17;;;10.00;;
7324;SDS011;3703;48.016;7.802;2023-01-26T05:31:25;21.80;;;10.87;;
7324;SDS011;3703;48.016;7.802;2023-01-26T05:34:14;22.03;;;11.27;;
7324;SDS011;3703;48.016;7.802;2023-01-26T05:37:02;18.63;;;8.77;;
7324;SDS011;3703;48.016;7.802;2023-01-26T05:39:49;19.87;;;9.77;;
7324;SDS011;3703;48.016;7.802;2023-01-26T05:42:37;24.10;;;10.03;;
7324;SDS011;3703;48.016;7.802;2023-01-26T05:45:25;20.87;;;10.50;;
7324;SDS011;3703;48.016;7.802;2023-01-26T05:48:13;19.90;;;10.37;;
7324;SDS011;3703;48.016;7.802;2023-01-26T05:51:02;20.83;;;9.73;;
7324;SDS011;3703;48.016;7.802;2023-01-26T05:53:50;21.10;;;10.40;;
7324;SDS011;3703;48.016;7.802;2023-01-26T05:56:37;19.37;;;8.90;;
7324;SDS011;3703;48.016;7.802;2023-01-26T05:59:25;21.70;;;9.50;;
7324;SDS011;3703;48.016;7.802;2023-01-26T06:02:13;21.43;;;9.63;;
7324;SDS011;3703;48.016;7.802;2023-01-26T06:05:02;21.23;;;9.83;;
7324;SDS011;3703;48.016;7.802;2023-01-26T06:07:52;18.70;;;8.93;;
7324;SDS011;3703;48.016;7.802;2023-01-26T06:10:40;22.70;;;10.63;;
7324;SDS011;3703;48.016;7.802;2023-01-26T06:13:28;18.23;;;9.60;;
7324;SDS011;3703;48.016;7.802;2023-01-26T06:16:16;19.57;;;9.30;;
7324;SDS011;3703;48.016;7.802;2023-01-26T06:19:03;18.67;;;9.70;;
7324;SDS011;3703;48.016;7.802;2023-01-26T06:21:52;22.70;;;9.70;;
7324;SDS011;3703;48.016;7.802;2023-01-26T06:24:41;18.80;;;8.70;;
7324;SDS011;3703;48.016;7.802;2023-01-26T06:27:28;24.77;;;10.83;;
7324;SDS011;3703;48.016;7.802;2023-01-26T06:30:16;22.53;;;10.23;;
7324;SDS011;3703;48.016;7.802;2023-01-26T06:33:04;17.57;;;9.30;;
7324;SDS011;3703;48.016;7.802;2023-01-26T06:35:52;22.03;;;10.53;;
7324;SDS011;3703;48.016;7.802;2023-01-26T06:38:43;21.27;;;10.33;;
7324;SDS011;3703;48.016;7.802;2023-01-26T06:41:34;22.50;;;9.40;;
7324;SDS011;3703;48.016;7.802;2023-01-26T06:44:21;23.27;;;10.43;;
7324;SDS011;3703;48.016;7.802;2023-01-26T06:47:09;19.87;;;9.43;;
7324;SDS011;3703;48.016;7.802;2023-01-26T06:49:59;22.30;;;10.70;;
7324;SDS011;3703;48.016;7.802;2023-01-26T06:52:47;17.83;;;9.50;;
7324;SDS011;3703;48.016;7.802;2023-01-26T06:55:37;24.20;;;10.33;;
7324;SDS011;3703;48.016;7.802;2023-01-26T06:58:27;20.13;;;9.27;;
7324;SDS011;3703;48.016;7.802;2023-01-26T07:01:15;24.63;;;10.37;;
7324;SDS011;3703;48.016;7.802;2023-01-26T07:04:05;22.77;;;11.03;;
7324;SDS011;3703;48.016;7.802;2023-01-26T07:06:53;19.47;;;9.63;;
7324;SDS011;3703;48.016;7.802;2023-01-26T07:09:41;19.73;;;10.50;;
7324;SDS011;3703;48.016;7.802;2023-01-26T07:12:36;23.57;;;10.33;;
7324;SDS011;3703;48.016;7.802;2023-01-26T07:15:27;21.53;;;10.70;;
7324;SDS011;3703;48.016;7.802;2023-01-26T07:18:14;22.33;;;10.93;;
7324;SDS011;3703;48.016;7.802;2023-01-26T07:21:02;22.80;;;11.50;;
7324;SDS011;3703;48.016;7.802;2023-01-26T07:23:53;21.83;;;11.03;;
7324;SDS011;3703;48.016;7.802;2023-01-26T07:26:42;23.27;;;11.17;;
7324;SDS011;3703;48.016;7.802;2023-01-26T07:29:30;23.87;;;10.53;;
7324;SDS011;3703;48.016;7.802;2023-01-26T07:32:19;24.97;;;12.97;;
7324;SDS011;3703;48.016;7.802;2023-01-26T07:35:07;21.83;;;10.60;;
7324;SDS011;3703;48.016;7.802;2023-01-26T07:37:55;24.60;;;10.67;;
7324;SDS011;3703;48.016;7.802;2023-01-26T07:40:43;23.77;;;11.00;;
7324;SDS011;3703;48.016;7.802;2023-01-26T07:43:31;24.93;;;11.10;;
7324;SDS011;3703;48.016;7.802;2023-01-26T07:46:19;25.03;;;11.83;;
7324;SDS011;3703;48.016;7.802;2023-01-26T07:49:09;26.60;;;12.10;;
7324;SDS011;3703;48.016;7.802;2023-01-26T07:51:57;27.17;;;12.70;;
7324;SDS011;3703;48.016;7.802;2023-01-26T07:54:44;27.67;;;12.30;;
7324;SDS011;3703;48.016;7.802;2023-01-26T07:57:32;30.33;;;11.97;;
7324;SDS011;3703;48.016;7.802;2023-01-26T08:00:20;27.27;;;12.23;;
7324;SDS011;3703;48.016;7.802;2023-01-26T08:03:08;27.50;;;12.70;;
7324;SDS011;3703;48.016;7.802;2023-01-26T08:05:57;25.20;;;11.93;;
7324;SDS011;3703;48.016;7.802;2023-01-26T08:08:45;25.63;;;12.67;;
7324;SDS011;3703;48.016;7.802;2023-01-26T08:11:35;30.27;;;12.20;;
7324;SDS011;3703;48.016;7.802;2023-01-26T08:14:23;32.47;;;13.30;;
7324;SDS011;3703;48.016;7.802;2023-01-26T08:17:11;28.57;;;13.93;;
7324;SDS011;3703;48.016;7.802;2023-01-26T08:20:01;26.30;;;12.97;;
7324;SDS011;3703;48.016;7.802;2023-01-26T08:22:51;26.97;;;12.50;;
7324;SDS011;3703;48.016;7.802;2023-01-26T08:25:39;25.30;;;12.80;;
7324;SDS011;3703;48.016;7.802;2023-01-26T08:28:27;25.00;;;11.67;;
7324;SDS011;3703;48.016;7.802;2023-01-26T08:31:15;23.13;;;12.23;;
7324;SDS011;3703;48.016;7.802;2023-01-26T08:34:04;24.10;;;11.53;;
7324;SDS011;3703;48.016;7.802;2023-01-26T08:36:52;26.73;;;13.00;;
7324;SDS011;3703;48.016;7.802;2023-01-26T08:39:41;29.30;;;13.60;;
7324;SDS011;3703;48.016;7.802;2023-01-26T08:42:29;28.57;;;13.13;;
7324;SDS011;3703;48.016;7.802;2023-01-26T08:45:17;29.87;;;13.00;;
7324;SDS011;3703;48.016;7.802;2023-01-26T08:48:05;29.47;;;13.60;;
7324;SDS011;3703;48.016;7.802;2023-01-26T08:50:53;27.63;;;14.40;;
7324;SDS011;3703;48.016;7.802;2023-01-26T08:53:41;25.23;;;12.90;;
7324;SDS011;3703;48.016;7.802;2023-01-26T08:56:30;29.50;;;14.03;;
7324;SDS011;3703;48.016;7.802;2023-01-26T08:59:18;26.70;;;13.10;;
7324;SDS011;3703;48.016;7.802;2023-01-26T09:02:07;33.77;;;14.13;;
7324;SDS011;3703;48.016;7.802;2023-01-26T09:04:55;32.37;;;13.90;;
7324;SDS011;3703;48.016;7.802;2023-01-26T09:07:43;31.50;;;14.87;;
7324;SDS011;3703;48.016;7.802;2023-01-26T09:10:31;27.67;;;13.53;;
7324;SDS011;3703;48.016;7.802;2023-01-26T09:13:20;28.97;;;12.60;;
7324;SDS011;3703;48.016;7.802;2023-01-26T09:16:11;33.23;;;13.80;;
7324;SDS011;3703;48.016;7.802;2023-01-26T09:19:01;30.30;;;13.57;;
7324;SDS011;3703;48.016;7.802;2023-01-26T09:21:51;31.07;;;14.63;;
7324;SDS011;3703;48.016;7.802;2023-01-26T09:24:39;26.83;;;12.53;;
7324;SDS011;3703;48.016;7.802;2023-01-26T09:27:26;27.10;;;11.40;;
7324;SDS011;3703;48.016;7.802;2023-01-26T09:30:16;29.93;;;13.23;;
7324;SDS011;3703;48.016;7.802;2023-01-26T09:33:04;29.27;;;14.10;;
7324;SDS011;3703;48.016;7.802;2023-01-26T09:35:52;29.70;;;14.77;;
7324;SDS011;3703;48.016;7.802;2023-01-26T09:38:40;29.20;;;12.40;;
7324;SDS011;3703;48.016;7.802;2023-01-26T09:41:32;28.73;;;13.60;;
7324;SDS011;3703;48.016;7.802;2023-01-26T09:44:39;29.77;;;13.47;;
7324;SDS011;3703;48.016;7.802;2023-01-26T09:47:38;25.40;;;13.53;;
7324;SDS011;3703;48.016;7.802;2023-01-26T09:50:41;28.57;;;12.27;;
7324;SDS011;3703;48.016;7.802;2023-01-26T09:53:37;32.40;;;12.60;;
7324;SDS011;3703;48.016;7.802;2023-01-26T09:56:31;29.73;;;13.07;;
7324;SDS011;3703;48.016;7.802;2023-01-26T09:59:21;28.40;;;12.93;;
7324;SDS011;3703;48.016;7.802;2023-01-26T10:02:22;28.47;;;12.50;;
7324;SDS011;3703;48.016;7.802;2023-01-26T10:05:24;27.73;;;12.30;;
7324;SDS011;3703;48.016;7.802;2023-01-26T10:08:19;26.27;;;12.37;;
7324;SDS011;3703;48.016;7.802;2023-01-26T10:11:11;21.63;;;12.63;;
7324;SDS011;3703;48.016;7.802;2023-01-26T10:14:10;24.50;;;12.07;;
7324;SDS011;3703;48.016;7.802;2023-01-26T10:17:01;27.90;;;12.00;;
7324;SDS011;3703;48.016;7.802;2023-01-26T10:19:51;25.27;;;10.90;;
7324;SDS011;3703;48.016;7.802;2023-01-26T10:22:45;27.10;;;12.33;;
7324;SDS011;3703;48.016;7.802;2023-01-26T10:25:35;25.17;;;11.73;;
7324;SDS011;3703;48.016;7.802;2023-01-26T10:28:27;24.13;;;10.83;;
7324;SDS011;3703;48.016;7.802;2023-01-26T10:31:18;24.57;;;11.00;;
7324;SDS011;3703;48.016;7.802;2023-01-26T10:34:09;20.50;;;10.10;;
7324;SDS011;3703;48.016;7.802;2023-01-26T10:37:01;20.10;;;10.10;;
7324;SDS011;3703;48.016;7.802;2023-01-26T10:40:07;25.80;;;11.57;;
7324;SDS011;3703;48.016;7.802;2023-01-26T10:42:57;24.20;;;11.50;;
7324;SDS011;3703;48.016;7.802;2023-01-26T10:45:46;18.47;;;9.73;;
7324;SDS011;3703;48.016;7.802;2023-01-26T10:48:34;23.17;;;11.20;;
7324;SDS011;3703;48.016;7.802;2023-01-26T10:51:23;23.23;;;10.97;;
7324;SDS011;3703;48.016;7.802;2023-01-26T10:54:18;20.90;;;10.47;;
7324;SDS011;3703;48.016;7.802;2023-01-26T10:57:14;22.57;;;10.87;;
7324;SDS011;3703;48.016;7.802;2023-01-26T11:00:08;24.57;;;11.70;;
7324;SDS011;3703;48.016;7.802;2023-01-26T11:03:15;22.97;;;11.27;;
7324;SDS011;3703;48.016;7.802;2023-01-26T11:06:05;20.67;;;10.57;;
7324;SDS011;3703;48.016;7.802;2023-01-26T11:08:54;24.77;;;11.67;;
7324;SDS011;3703;48.016;7.802;2023-01-26T11:11:57;20.43;;;9.80;;
7324;SDS011;3703;48.016;7.802;2023-01-26T11:14:59;21.10;;;10.63;;
7324;SDS011;3703;48.016;7.802;2023-01-26T11:17:50;20.20;;;10.43;;
7324;SDS011;3703;48.016;7.802;2023-01-26T11:20:46;21.87;;;12.27;;
7324;SDS011;3703;48.016;7.802;2023-01-26T11:23:45;25.63;;;11.27;;
7324;SDS011;3703;48.016;7.802;2023-01-26T11:26:50;24.23;;;11.37;;
7324;SDS011;3703;48.016;7.802;2023-01-26T11:33:34;22.17;;;10.63;;
7324;SDS011;3703;48.016;7.802;2023-01-26T11:36:34;22.47;;;11.90;;
7324;SDS011;3703;48.016;7.802;2023-01-26T11:39:30;24.07;;;11.13;;
7324;SDS011;3703;48.016;7.802;2023-01-26T11:42:29;23.60;;;11.47;;
7324;SDS011;3703;48.016;7.802;2023-01-26T11:45:22;22.47;;;11.03;;
7324;SDS011;3703;48.016;7.802;2023-01-26T11:48:17;19.63;;;11.03;;
7324;SDS011;3703;48.016;7.802;2023-01-26T11:51:16;21.40;;;10.83;;
7324;SDS011;3703;48.016;7.802;2023-01-26T11:54:21;18.53;;;9.97;;
7324;SDS011;3703;48.016;7.802;2023-01-26T11:57:24;20.27;;;11.37;;
7324;SDS011;3703;48.016;7.802;2023-01-26T12:00:21;21.07;;;12.20;;
7324;SDS011;3703;48.016;7.802;2023-01-26T12:03:22;21.60;;;10.57;;
7324;SDS011;3703;48.016;7.802;2023-01-26T12:06:18;19.77;;;9.47;;
7324;SDS011;3703;48.016;7.802;2023-01-26T12:09:12;20.47;;;10.07;;
7324;SDS011;3703;48.016;7.802;2023-01-26T12:12:07;19.47;;;10.20;;
7324;SDS011;3703;48.016;7.802;2023-01-26T12:15:00;18.87;;;9.53;;
7324;SDS011;3703;48.016;7.802;2023-01-26T12:17:55;21.40;;;11.03;;
7324;SDS011;3703;48.016;7.802;2023-01-26T12:20:48;19.67;;;10.80;;
7324;SDS011;3703;48.016;7.802;2023-01-26T12:23:41;17.77;;;9.83;;
7324;SDS011;3703;48.016;7.802;2023-01-26T12:26:39;19.67;;;9.63;;
7324;SDS011;3703;48.016;7.802;2023-01-26T12:29:35;19.23;;;9.93;;
7324;SDS011;3703;48.016;7.802;2023-01-26T12:32:32;23.03;;;11.33;;
7324;SDS011;3703;48.016;7.802;2023-01-26T12:35:26;18.03;;;9.90;;
7324;SDS011;3703;48.016;7.802;2023-01-26T12:38:46;20.03;;;10.00;;
7324;SDS011;3703;48.016;7.802;2023-01-26T12:45:12;24.23;;;9.93;;
7324;SDS011;3703;48.016;7.802;2023-01-26T12:48:06;17.67;;;9.83;;
7324;SDS011;3703;48.016;7.802;2023-01-26T12:51:03;16.87;;;9.47;;
7324;SDS011;3703;48.016;7.802;2023-01-26T12:53:56;22.50;;;10.40;;
7324;SDS011;3703;48.016;7.802;2023-01-26T12:56:49;16.97;;;9.37;;
7324;SDS011;3703;48.016;7.802;2023-01-26T12:59:40;19.97;;;9.60;;
7324;SDS011;3703;48.016;7.802;2023-01-26T13:02:29;17.93;;;9.53;;
7324;SDS011;3703;48.016;7.802;2023-01-26T13:05:27;14.93;;;8.57;;
7324;SDS011;3703;48.016;7.802;2023-01-26T13:11:50;16.77;;;9.37;;
7324;SDS011;3703;48.016;7.802;2023-01-26T13:17:50;13.10;;;8.20;;
7324;SDS011;3703;48.016;7.802;2023-01-26T13:20:43;19.63;;;9.30;;
7324;SDS011;3703;48.016;7.802;2023-01-26T13:23:39;17.13;;;8.80;;
7324;SDS011;3703;48.016;7.802;2023-01-26T13:29:50;19.07;;;8.47;;
7324;SDS011;3703;48.016;7.802;2023-01-26T13:32:49;15.97;;;8.53;;
7324;SDS011;3703;48.016;7.802;2023-01-26T13:35:39;16.10;;;8.63;;
7324;SDS011;3703;48.016;7.802;2023-01-26T13:38:28;18.47;;;8.60;;
7324;SDS011;3703;48.016;7.802;2023-01-26T13:41:21;20.53;;;10.67;;
7324;SDS011;3703;48.016;7.802;2023-01-26T13:44:12;19.43;;;9.63;;
7324;SDS011;3703;48.016;7.802;2023-01-26T13:47:04;17.70;;;9.13;;
7324;SDS011;3703;48.016;7.802;2023-01-26T13:49:56;19.33;;;10.03;;
7324;SDS011;3703;48.016;7.802;2023-01-26T13:52:44;18.23;;;10.60;;
7324;SDS011;3703;48.016;7.802;2023-01-26T13:55:32;18.47;;;10.77;;
7324;SDS011;3703;48.016;7.802;2023-01-26T13:58:25;15.17;;;9.27;;
7324;SDS011;3703;48.016;7.802;2023-01-26T14:01:14;20.30;;;9.93;;
7324;SDS011;3703;48.016;7.802;2023-01-26T14:04:03;17.03;;;9.97;;
7324;SDS011;3703;48.016;7.802;2023-01-26T14:06:54;18.07;;;9.60;;
7324;SDS011;3703;48.016;7.802;2023-01-26T14:09:45;16.53;;;9.07;;
7324;SDS011;3703;48.016;7.802;2023-01-26T14:12:40;19.90;;;9.40;;
7324;SDS011;3703;48.016;7.802;2023-01-26T14:15:30;17.33;;;9.73;;
7324;SDS011;3703;48.016;7.802;2023-01-26T14:18:20;16.77;;;9.07;;
7324;SDS011;3703;48.016;7.802;2023-01-26T14:21:18;18.43;;;10.43;;
7324;SDS011;3703;48.016;7.802;2023-01-26T14:24:09;17.47;;;9.37;;
7324;SDS011;3703;48.016;7.802;2023-01-26T14:26:56;21.30;;;10.87;;
7324;SDS011;3703;48.016;7.802;2023-01-26T14:29:44;23.17;;;10.73;;
7324;SDS011;3703;48.016;7.802;2023-01-26T14:32:33;20.73;;;10.67;;
7324;SDS011;3703;48.016;7.802;2023-01-26T14:35:22;16.67;;;8.83;;
7324;SDS011;3703;48.016;7.802;2023-01-26T14:38:13;21.00;;;9.37;;
7324;SDS011;3703;48.016;7.802;2023-01-26T14:41:07;15.50;;;9.20;;
7324;SDS011;3703;48.016;7.802;2023-01-26T14:44:00;17.13;;;9.57;;
7324;SDS011;3703;48.016;7.802;2023-01-26T14:46:52;22.03;;;9.83;;
7324;SDS011;3703;48.016;7.802;2023-01-26T14:49:46;17.73;;;9.33;;
7324;SDS011;3703;48.016;7.802;2023-01-26T14:52:39;18.27;;;10.43;;
7324;SDS011;3703;48.016;7.802;2023-01-26T14:55:31;19.40;;;10.43;;
7324;SDS011;3703;48.016;7.802;2023-01-26T14:58:22;19.07;;;10.13;;
7324;SDS011;3703;48.016;7.802;2023-01-26T15:01:18;21.60;;;10.83;;
7324;SDS011;3703;48.016;7.802;2023-01-26T15:04:13;19.53;;;10.73;;
7324;SDS011;3703;48.016;7.802;2023-01-26T15:07:21;22.60;;;10.73;;
7324;SDS011;3703;48.016;7.802;2023-01-26T15:10:33;25.00;;;11.80;;
7324;SDS011;3703;48.016;7.802;2023-01-26T15:13:22;23.90;;;11.37;;
7324;SDS011;3703;48.016;7.802;2023-01-26T15:16:16;25.93;;;11.30;;
7324;SDS011;3703;48.016;7.802;2023-01-26T15:19:06;21.50;;;11.30;;
7324;SDS011;3703;48.016;7.802;2023-01-26T15:25:18;22.60;;;10.60;;
7324;SDS011;3703;48.016;7.802;2023-01-26T15:28:14;25.27;;;11.63;;
7324;SDS011;3703;48.016;7.802;2023-01-26T15:31:04;26.40;;;11.50;;
7324;SDS011;3703;48.016;7.802;2023-01-26T15:33:53;24.60;;;11.77;;
7324;SDS011;3703;48.016;7.802;2023-01-26T15:36:46;27.47;;;12.70;;
7324;SDS011;3703;48.016;7.802;2023-01-26T15:39:35;25.63;;;11.87;;
7324;SDS011;3703;48.016;7.802;2023-01-26T15:42:23;20.97;;;11.00;;
7324;SDS011;3703;48.016;7.802;2023-01-26T15:45:18;19.17;;;10.60;;
7324;SDS011;3703;48.016;7.802;2023-01-26T15:48:12;22.63;;;12.00;;
7324;SDS011;3703;48.016;7.802;2023-01-26T15:51:00;25.73;;;12.40;;
7324;SDS011;3703;48.016;7.802;2023-01-26T15:53:47;22.93;;;11.47;;
7324;SDS011;3703;48.016;7.802;2023-01-26T15:56:35;23.10;;;10.30;;
7324;SDS011;3703;48.016;7.802;2023-01-26T15:59:23;22.30;;;11.50;;
7324;SDS011;3703;48.016;7.802;2023-01-26T16:02:13;22.20;;;10.57;;
7324;SDS011;3703;48.016;7.802;2023-01-26T16:05:03;19.43;;;10.70;;
7324;SDS011;3703;48.016;7.802;2023-01-26T16:07:51;23.60;;;10.80;;
7324;SDS011;3703;48.016;7.802;2023-01-26T16:10:39;18.83;;;9.70;;
7324;SDS011;3703;48.016;7.802;2023-01-26T16:13:27;15.43;;;9.73;;
7324;SDS011;3703;48.016;7.802;2023-01-26T16:16:15;19.27;;;10.50;;
7324;SDS011;3703;48.016;7.802;2023-01-26T16:19:04;22.20;;;10.40;;
7324;SDS011;3703;48.016;7.802;2023-01-26T16:21:53;19.67;;;11.33;;
7324;SDS011;3703;48.016;7.802;2023-01-26T16:24:41;19.77;;;10.37;;
7324;SDS011;3703;48.016;7.802;2023-01-26T16:27:29;22.83;;;10.70;;
7324;SDS011;3703;48.016;7.802;2023-01-26T16:30:17;16.33;;;9.83;;
7324;SDS011;3703;48.016;7.802;2023-01-26T16:33:05;19.27;;;10.13;;
7324;SDS011;3703;48.016;7.802;2023-01-26T16:35:55;18.27;;;10.83;;
7324;SDS011;3703;48.016;7.802;2023-01-26T16:38:43;22.87;;;10.33;;
7324;SDS011;3703;48.016;7.802;2023-01-26T16:41:31;18.77;;;10.73;;
7324;SDS011;3703;48.016;7.802;2023-01-26T16:44:20;17.50;;;10.90;;
7324;SDS011;3703;48.016;7.802;2023-01-26T16:47:08;18.40;;;10.23;;
7324;SDS011;3703;48.016;7.802;2023-01-26T16:49:56;16.13;;;8.47;;
7324;SDS011;3703;48.016;7.802;2023-01-26T16:52:45;16.07;;;8.33;;
7324;SDS011;3703;48.016;7.802;2023-01-26T16:55:33;19.63;;;10.60;;
7324;SDS011;3703;48.016;7.802;2023-01-26T16:58:21;21.80;;;9.27;;
7324;SDS011;3703;48.016;7.802;2023-01-26T17:01:15;17.43;;;8.43;;
7324;SDS011;3703;48.016;7.802;2023-01-26T17:04:05;19.33;;;10.27;;
7324;SDS011;3703;48.016;7.802;2023-01-26T17:06:55;18.07;;;10.40;;
7324;SDS011;3703;48.016;7.802;2023-01-26T17:09:44;19.13;;;10.30;;
7324;SDS011;3703;48.016;7.802;2023-01-26T17:12:32;21.80;;;11.20;;
7324;SDS011;3703;48.016;7.802;2023-01-26T17:15:19;20.27;;;10.43;;
7324;SDS011;3703;48.016;7.802;2023-01-26T17:18:09;21.50;;;10.50;;
7324;SDS011;3703;48.016;7.802;2023-01-26T17:21:00;18.23;;;9.53;;
7324;SDS011;3703;48.016;7.802;2023-01-26T17:23:49;18.03;;;10.37;;
7324;SDS011;3703;48.016;7.802;2023-01-26T17:26:40;15.30;;;8.53;;
7324;SDS011;3703;48.016;7.802;2023-01-26T17:29:27;19.03;;;10.13;;
7324;SDS011;3703;48.016;7.802;2023-01-26T17:32:15;17.27;;;10.17;;
7324;SDS011;3703;48.016;7.802;2023-01-26T17:35:09;14.10;;;8.67;;